WEATHER DATA

YESTERDAY
Time Temp. Dewp. Hum. Bar. 1h Prec. 24h Prec.
00:09 3.2 0.6 83 1013.3 0.0000 0.0000
00:19 3.2 0.6 83 1013.3 0.0000 0.0000
00:29 3.2 0.6 83 1013.3 0.0000 0.0000
00:39 3.2 0.8 84 1013.3 0.0000 0.0000
00:49 3.1 0.5 83 1013.2 0.0000 0.0000
01:00 3 0.4 83 1013.2 0.0000 0.0000
01:10 3 0.4 83 1013.2 0.0000 0.0000
01:19 3 0.6 84 1013.2 0.0000 0.0000
01:30 3 0.6 84 1013.2 0.0000 0.0000
01:40 3 0.6 84 1013.2 0.0000 0.0000
01:50 3 0.6 84 1013.1 0.0000 0.0000
02:00 3 0.7 85 1013.1 0.0000 0.0000
02:10 3 0.7 85 1013 0.0000 0.0000
02:20 3 0.7 85 1012.9 0.0000 0.0000
02:30 3 0.7 85 1013 0.0000 0.0000
02:41 3 0.7 85 1013 0.0000 0.0000
02:51 2.9 0.6 85 1012.9 0.0000 0.0000
03:00 2.9 0.6 85 1012.9 0.0000 0.0000
03:10 2.9 0.6 85 1012.8 0.0000 0.0000
03:21 2.9 0.6 85 1012.6 0.0000 0.0000
03:31 2.9 0.6 85 1012.3 0.0000 0.0000
03:41 2.8 0.5 85 1012.1 0.0000 0.0000
03:51 2.8 0.5 85 1012.2 0.1010 0.1000
04:01 2.8 0.5 85 1012.2 0.1010 0.1000
04:10 2.8 0.5 85 1012.3 0.3030 0.3000
04:21 2.8 0.5 85 1012.5 0.6060 0.6000
04:31 2.8 0.5 85 1012.4 1.0100 1.0000
04:41 2.7 0.4 85 1012.2 1.5150 1.5000
04:50 2.7 0.4 85 1011.8 1.6160 1.7000
05:01 2.7 0.6 86 1011.2 1.7170 1.9000
05:10 2.7 0.6 86 1010.9 1.8180 2.2000
05:20 2.7 0.6 86 1010.8 1.5150 2.3000
05:31 2.7 0.6 86 1011.1 1.2120 2.6000
05:41 2.7 0.6 86 1011.4 1.7170 3.3000
05:51 2.6 0.5 86 1010.5 2.1210 4.0000
06:01 2.6 0.5 86 1011.2 2.1210 4.2000
06:11 2.6 0.5 86 1010.9 2.5250 4.7000
06:21 2.6 0.5 86 1010.3 2.8280 5.3000
06:31 2.7 0.6 86 1010.3 2.4240 5.4000
06:42 2.8 0.7 86 1010.2 1.7170 5.4000
06:52 2.8 0.7 86 1009.7 1.3130 5.5000
07:01 2.9 1 87 1010.1 1.2120 5.5000
07:11 2.9 0.8 86 1009.9 0.4040 5.5000
07:22 2.9 0.8 86 1009.9 0.2020 5.5000
07:32 3 0.9 86 1010 0.2020 5.6000
07:42 3 1.1 87 1009.7 0.2020 5.6000
07:52 3.1 1.1 87 1009.5 0.2020 5.7000
08:02 3.3 1.3 87 1009.3 0.2020 5.7000
08:12 3.6 1.6 87 1009.3 0.4040 5.9000
08:22 3.6 1.6 87 1009.3 0.4040 5.9000
08:33 3.7 1.7 87 1009.3 0.4040 6.0000
08:42 3.8 1.8 87 1009.3 0.3030 6.0000
08:52 3.8 1.8 87 1009.3 0.3030 6.0000
09:03 3.9 1.9 87 1009.4 0.2020 6.0000
09:13 3.9 1.9 87 1009.2 0.1010 6.0000
09:23 4.1 2.1 87 1009 0.1010 6.0000
09:32 4.4 2.6 88 1009.3 0.0000 6.0000
09:43 4.6 2.6 87 1009.2 0.0000 6.0000
09:54 4.8 2.8 87 1008.9 0.0000 6.0000
10:04 5.1 3.1 87 1009.1 0.0000 6.0000
10:14 5.3 3.3 87 1009.3 0.0000 6.0000
10:25 5.5 3.3 86 1009.3 0.0000 6.0000
10:35 5.7 3.5 86 1009.6 0.0000 6.0000
10:44 6.1 3.9 86 1009.4 0.0000 6.0000
10:54 6.4 4.1 85 1009.7 0.0000 6.0000
11:05 6.7 4.4 85 1009.6 0.0000 6.0000
11:15 7 4.7 85 1009.9 0.0000 6.0000
11:25 7.4 4.9 84 1009.8 0.0000 6.0000
11:35 7.9 5.4 84 1010 0.0000 6.0000
11:45 8.3 5.4 82 1009.9 0.0000 6.0000
11:55 8.7 5.6 81 1010.1 0.0000 6.0000
12:05 9.1 5.7 79 1010.2 0.0000 6.0000
12:16 9.5 6 79 1010.4 0.0000 6.0000
12:26 9.7 5.9 77 1010.4 0.0000 6.0000
12:35 10.2 6.4 77 1010.4 0.0000 6.0000
12:46 10.7 6.5 75 1010.4 0.0000 6.0000
12:56 10.9 6.3 73 1010.5 0.0000 6.0000
13:06 11.3 6.4 72 1010.6 0.0000 6.0000
13:16 11.7 6.6 71 1010.6 0.0000 6.0000
13:26 12 6.7 70 1010.8 0.0000 6.0000
13:36 12.3 7 70 1010.9 0.0000 6.0000
13:46 12.6 6.6 67 1011 0.0000 6.0000
13:57 12.9 6.7 66 1011.3 0.0000 6.0000
14:07 13.3 6.9 65 1011.4 0.0000 6.0000
14:16 13.5 6.6 63 1011.5 0.0000 6.0000
14:26 13.8 6.9 63 1011.7 0.0000 6.0000
14:37 13.9 6.7 62 1011.8 0.0000 6.0000
14:47 14.1 6.7 61 1011.9 0.0000 6.0000
14:57 14.2 6.6 60 1012 0.0000 6.0000
15:07 14.3 6.6 60 1012 0.0000 6.0000
15:17 14.6 6.4 58 1012.2 0.0000 6.0000
15:27 14.7 6.3 57 1012.2 0.0000 6.0000
15:37 14.8 6.1 56 1012.2 0.0000 6.0000
15:48 14.9 6 55 1012.2 0.0000 6.0000
15:58 14.7 6 56 1012.6 0.0000 6.0000
16:07 14.7 5.8 55 1012.8 0.0000 6.0000
16:17 14.6 5.9 56 1012.9 0.0000 6.0000
16:28 14.5 5.6 55 1013 0.0000 6.0000
16:38 14.3 5.4 55 1012.9 0.0000 6.0000
16:48 14.2 5.6 56 1012.9 0.0000 6.0000
16:58 14 5.4 56 1013.1 0.0000 6.0000
17:08 13.9 5.3 56 1013 0.0000 6.0000
17:18 13.8 5.4 57 1012.9 0.0000 6.0000
17:28 13.8 5.4 57 1013.1 0.0000 6.0000
17:39 13.8 5.4 57 1013.2 0.0000 6.0000
17:48 13.9 5.5 57 1013.1 0.0000 6.0000
17:58 13.9 5.5 57 1013.4 0.0000 6.0000
18:09 13.8 5.4 57 1013.4 0.0000 6.0000
18:19 13.7 5.6 58 1013.5 0.0000 6.0000
18:29 13.6 5.5 58 1013.6 0.0000 6.0000
18:38 13.5 5.7 59 1013.7 0.0000 6.0000
18:49 13.5 5.7 59 1013.8 0.0000 6.0000
18:59 13.5 5.9 60 1014 0.0000 6.0000
19:09 13.4 5.8 60 1014 0.0000 6.0000
19:20 13.4 6 61 1013.9 0.0000 6.0000
19:30 13.5 6.1 61 1014.1 0.0000 6.0000
19:39 13.3 5.9 61 1014.4 0.0000 6.0000
19:49 13.1 5.8 61 1014.3 0.0000 6.0000
20:00 13 5.9 62 1014.5 0.0000 6.0000
20:10 12.7 5.8 63 1014.6 0.0000 6.0000
20:20 12.4 5.6 63 1014.5 0.0000 6.0000
20:30 12.2 5.6 64 1014.6 0.0000 6.0000
20:40 11.8 5.4 65 1014.7 0.0000 6.0000
20:50 11.4 5.3 66 1014.9 0.0000 6.0000
21:00 11.2 5.3 67 1014.9 0.0000 6.0000
21:11 10.8 5.1 68 1015.1 0.0000 6.0000
21:20 10.3 4.9 69 1015.4 0.0000 6.0000
21:30 9.9 4.7 70 1015.4 0.0000 6.0000
21:40 9.5 4.5 71 1015.7 0.0000 6.0000
21:51 9.2 4.4 72 1015.9 0.0000 6.0000
22:01 8.9 4.3 73 1016.1 0.0000 6.0000
22:10 8.7 4.3 74 1016.1 0.0000 6.0000
22:21 8.4 4 74 1016.2 0.0000 6.0000
22:31 8.1 3.9 75 1016.3 0.0000 6.0000
22:41 7.8 3.7 75 1016.2 0.0000 6.0000
22:51 7.5 3.5 76 1016.3 0.0000 6.0000
23:01 7.2 3.4 77 1016.4 0.0000 6.0000
23:11 6.8 2.9 76 1016.5 0.0000 6.0000
23:21 6.4 2.7 77 1016.6 0.0000 6.0000
23:32 6 2.5 78 1016.6 0.0000 6.0000
23:42 5.7 2.3 79 1016.8 0.0000 6.0000
23:52 5.4 1.9 78 1016.9 0.0000 6.0000

DAY STATISTIC

2021-05-11
TEMPERATURE
AVERAGE
7.8
HIGH
14.9
15:48
LOW
2.6
05:51
PRESSURE
AVERAGE
1012.3
HIGH
1016.9
23:52
LOW
1008.9
09:54
DEWPOINT
AVERAGE
3.5
HIGH
7.0
13:36
LOW
0.4
01:00
HUMIDITY
AVERAGE
75
HIGH
88
09:32
LOW
55
15:48
PRECIPITATION
RAIN HOUR
2.8
RAIN DAY
6.0
TEMPERATURE (°C)
LOW
2.6
HIGH
14.9
AVERAGE
7.8
PRESSURE (hpa)
LOW
1008.9
HIGH
1016.9
AVERAGE
1012.3
DEVICE